createdAt,value
2022-12-08T00:03:31.011Z,5.00
2022-12-08T00:08:55.085Z,5.02
2022-12-08T00:13:56.711Z,5.00
2022-12-08T00:19:02.680Z,5.02
2022-12-08T00:24:08.013Z,5.02
2022-12-08T00:29:17.192Z,5.02
2022-12-08T00:34:21.974Z,5.00
2022-12-08T00:39:28.756Z,5.00
2022-12-08T00:44:36.276Z,5.00
2022-12-08T00:49:37.835Z,5.04
2022-12-08T00:54:41.366Z,5.05
2022-12-08T00:59:47.116Z,5.06
2022-12-08T01:04:50.995Z,5.04
2022-12-08T01:09:55.033Z,5.05
2022-12-08T01:15:03.163Z,5.06
2022-12-08T01:20:05.270Z,5.03
2022-12-08T01:25:15.608Z,5.02
2022-12-08T01:30:17.329Z,5.03
2022-12-08T01:35:21.276Z,5.06
2022-12-08T01:40:31.439Z,5.07
2022-12-08T01:45:32.956Z,5.07
2022-12-08T01:50:36.647Z,5.09
2022-12-08T01:56:06.285Z,5.11
2022-12-08T02:01:16.448Z,5.10
2022-12-08T02:06:21.158Z,5.12
2022-12-08T02:11:35.025Z,5.12
2022-12-08T02:16:55.081Z,5.11
2022-12-08T02:22:06.893Z,5.12
2022-12-08T02:27:32.892Z,5.15
2022-12-08T02:32:46.464Z,5.16
2022-12-08T02:38:16.709Z,5.14
2022-12-08T02:43:41.249Z,5.15
2022-12-08T02:48:50.006Z,5.16
2022-12-08T02:53:53.456Z,5.14
2022-12-08T02:59:21.534Z,5.15
2022-12-08T03:04:26.538Z,5.12
2022-12-08T03:09:40.243Z,5.09
2022-12-08T03:14:49.502Z,5.09
2022-12-08T03:20:01.944Z,5.09
2022-12-08T03:25:14.070Z,5.10
2022-12-08T03:30:15.616Z,5.08
2022-12-08T03:35:44.386Z,5.05
2022-12-08T03:41:21.782Z,5.03
2022-12-08T03:51:30.738Z,4.98
2022-12-08T03:56:41.873Z,5.02
2022-12-08T04:01:46.032Z,4.99
2022-12-08T04:06:47.632Z,4.95
2022-12-08T04:11:53.970Z,4.92
2022-12-08T04:17:00.344Z,4.91
2022-12-08T04:22:10.510Z,4.89
2022-12-08T04:27:13.116Z,4.88
2022-12-08T04:32:21.929Z,4.91
2022-12-08T04:37:32.871Z,4.94
2022-12-08T04:42:39.611Z,4.94
2022-12-08T04:47:43.481Z,4.92
2022-12-08T04:52:47.335Z,4.90
2022-12-08T04:57:49.076Z,4.89
2022-12-08T05:02:52.980Z,4.86
2022-12-08T05:08:05.545Z,4.80
2022-12-08T05:13:11.868Z,4.75
2022-12-08T05:18:17.925Z,4.73
2022-12-08T05:23:23.713Z,4.69
2022-12-08T05:28:41.836Z,4.65
2022-12-08T05:33:51.508Z,4.63
2022-12-08T05:39:03.735Z,4.63
2022-12-08T05:44:05.321Z,4.61
2022-12-08T05:49:13.765Z,4.56
2022-12-08T05:54:15.262Z,4.52
2022-12-08T05:59:30.924Z,4.48
2022-12-08T06:04:38.017Z,4.45
2022-12-08T06:09:45.533Z,4.44
2022-12-08T06:14:52.302Z,4.41
2022-12-08T06:19:58.680Z,4.41
2022-12-08T06:25:00.248Z,4.38
2022-12-08T06:30:13.621Z,4.37
2022-12-08T06:35:17.450Z,4.32
2022-12-08T06:40:19.944Z,4.29
2022-12-08T06:45:25.109Z,4.27
2022-12-08T06:50:33.111Z,4.22
2022-12-08T07:01:10.838Z,4.16
2022-12-08T07:06:25.101Z,4.09
2022-12-08T07:11:49.106Z,4.05
2022-12-08T07:17:02.848Z,4.04
2022-12-08T07:22:11.688Z,4.01
2022-12-08T07:27:17.380Z,4.00
2022-12-08T07:32:19.670Z,4.00
2022-12-08T07:37:27.512Z,4.01
2022-12-08T07:42:36.596Z,4.04
2022-12-08T07:47:42.651Z,4.08
2022-12-08T07:52:47.447Z,4.11
2022-12-08T07:57:58.797Z,4.13
2022-12-08T08:03:12.086Z,4.18
2022-12-08T08:08:17.266Z,4.23
2022-12-08T08:13:21.279Z,4.28
2022-12-08T08:18:25.273Z,4.34
2022-12-08T08:23:32.316Z,4.41
2022-12-08T08:28:34.189Z,4.47
2022-12-08T08:33:42.517Z,4.55
2022-12-08T08:38:48.358Z,4.65
2022-12-08T08:43:54.895Z,4.73
2022-12-08T08:48:58.546Z,4.81
2022-12-08T08:54:02.444Z,4.89
2022-12-08T08:59:06.741Z,4.98
2022-12-08T09:04:25.660Z,5.05
2022-12-08T09:09:30.861Z,5.09
2022-12-08T09:14:35.130Z,5.18
2022-12-08T09:19:39.275Z,5.26
2022-12-08T09:24:45.985Z,5.34
2022-12-08T09:29:47.573Z,5.40
2022-12-08T09:35:00.540Z,5.45
2022-12-08T09:40:02.514Z,5.45
2022-12-08T09:45:15.522Z,5.47
2022-12-08T09:50:37.624Z,5.46
2022-12-08T09:55:45.927Z,5.48
2022-12-08T10:00:50.170Z,5.53
2022-12-08T10:06:19.019Z,5.55
2022-12-08T10:11:31.635Z,5.56
2022-12-08T10:16:50.347Z,5.56
2022-12-08T10:21:59.771Z,5.62
2022-12-08T10:27:06.125Z,5.74
2022-12-08T10:32:35.771Z,5.87
2022-12-08T10:37:38.317Z,5.89
2022-12-08T10:42:50.729Z,5.98
2022-12-08T10:48:11.840Z,6.05
2022-12-08T10:53:20.178Z,6.08
2022-12-08T10:58:27.977Z,6.11
2022-12-08T11:03:34.491Z,6.18
2022-12-08T11:08:54.151Z,6.16
2022-12-08T11:13:57.794Z,6.20
2022-12-08T11:19:06.675Z,6.29
2022-12-08T11:24:15.456Z,6.32
2022-12-08T11:29:22.283Z,6.40
2022-12-08T11:34:36.714Z,6.47
2022-12-08T11:39:54.990Z,6.47
2022-12-08T11:45:17.853Z,6.54
2022-12-08T11:51:20.717Z,6.62
2022-12-08T11:56:34.357Z,6.60
2022-12-08T12:01:42.247Z,6.61
2022-12-08T12:06:55.100Z,6.52
2022-12-08T12:12:15.755Z,6.46
2022-12-08T12:17:40.564Z,6.38
2022-12-08T12:22:47.460Z,6.38
2022-12-08T12:28:04.439Z,6.46
2022-12-08T12:33:13.039Z,6.47
2022-12-08T12:39:03.243Z,6.49
2022-12-08T12:44:22.699Z,6.54
2022-12-08T12:49:43.615Z,6.57
2022-12-08T12:54:50.775Z,6.56
2022-12-08T12:59:56.230Z,6.60
2022-12-08T13:05:29.125Z,6.65
2022-12-08T13:10:37.152Z,6.61
2022-12-08T13:15:41.200Z,6.67
2022-12-08T13:20:53.161Z,6.71
2022-12-08T13:26:12.352Z,6.72
2022-12-08T13:31:50.188Z,6.75
2022-12-08T13:36:58.522Z,6.74
2022-12-08T13:42:15.038Z,6.71
2022-12-08T13:47:33.759Z,6.77
2022-12-08T13:58:40.011Z,6.88
2022-12-08T14:04:22.155Z,6.96
2022-12-08T14:09:21.106Z,7.05
2022-12-08T14:20:15.992Z,7.19
2022-12-08T14:25:24.169Z,7.27
2022-12-08T14:30:37.925Z,7.32
2022-12-08T14:35:39.927Z,7.38
2022-12-08T14:40:48.863Z,7.43
2022-12-08T14:45:56.163Z,7.44
2022-12-08T14:51:18.823Z,7.44
2022-12-08T14:56:41.089Z,7.41
2022-12-08T15:01:46.271Z,7.33
2022-12-08T15:07:19.238Z,7.20
2022-12-08T15:12:35.198Z,7.06
2022-12-08T15:17:48.501Z,6.92
2022-12-08T15:22:57.794Z,6.83
2022-12-08T15:28:04.288Z,6.69
2022-12-08T15:33:14.222Z,6.57
2022-12-08T15:38:33.163Z,6.47
2022-12-08T15:43:35.665Z,6.35
2022-12-08T15:48:40.997Z,6.24
2022-12-08T15:53:44.849Z,6.13
2022-12-08T15:58:54.803Z,6.02
2022-12-08T16:09:44.117Z,5.87
2022-12-08T16:20:24.288Z,5.68
2022-12-08T16:25:52.739Z,5.58
2022-12-08T16:31:02.090Z,5.50
2022-12-08T16:36:10.147Z,5.45
2022-12-08T16:41:43.933Z,5.38
2022-12-08T16:46:51.128Z,5.32
2022-12-08T16:51:55.663Z,5.26
2022-12-08T16:57:02.614Z,5.21
2022-12-08T17:02:16.296Z,5.16
2022-12-08T17:07:25.165Z,5.11
2022-12-08T17:12:35.757Z,5.10
2022-12-08T17:17:40.058Z,5.07
2022-12-08T17:22:43.937Z,5.05
2022-12-08T17:27:53.855Z,5.03
2022-12-08T17:33:08.206Z,5.01
2022-12-08T17:38:18.060Z,5.01
2022-12-08T17:43:28.189Z,5.01
2022-12-08T17:48:37.205Z,5.00
2022-12-08T17:53:53.537Z,4.99
2022-12-08T17:58:58.873Z,4.96
2022-12-08T18:04:05.489Z,4.96
2022-12-08T18:09:09.190Z,4.94
2022-12-08T18:14:14.322Z,4.91
2022-12-08T18:19:21.990Z,4.88
2022-12-08T18:24:25.964Z,4.87
2022-12-08T18:29:29.101Z,4.88
2022-12-08T18:34:39.093Z,4.80
2022-12-08T18:39:43.808Z,4.79
2022-12-08T18:44:48.982Z,4.80
2022-12-08T18:49:54.768Z,4.79
2022-12-08T18:55:07.037Z,4.78
2022-12-08T19:00:17.193Z,4.76
2022-12-08T19:05:19.077Z,4.76
2022-12-08T19:10:24.626Z,4.75
2022-12-08T19:15:34.426Z,4.73
2022-12-08T19:20:37.362Z,4.73
2022-12-08T19:25:45.359Z,4.71
2022-12-08T19:30:49.844Z,4.70
2022-12-08T19:35:52.886Z,4.69
2022-12-08T19:41:14.296Z,4.69
2022-12-08T19:46:21.286Z,4.69
2022-12-08T19:51:30.360Z,4.71
2022-12-08T19:56:32.603Z,4.70
2022-12-08T20:01:40.306Z,4.69
2022-12-08T20:06:45.660Z,4.69
2022-12-08T20:11:47.298Z,4.70
2022-12-08T20:16:57.299Z,4.72
2022-12-08T20:22:03.667Z,4.73
2022-12-08T20:27:17.796Z,4.73
2022-12-08T20:32:19.357Z,4.74
2022-12-08T20:37:23.259Z,4.73
2022-12-08T20:42:24.886Z,4.71
2022-12-08T20:47:29.162Z,4.72
2022-12-08T20:52:34.245Z,4.74
2022-12-08T20:57:38.271Z,4.74
2022-12-08T21:02:48.606Z,4.73
2022-12-08T21:08:02.725Z,4.71
2022-12-08T21:13:08.407Z,4.69
2022-12-08T21:18:23.906Z,4.70
2022-12-08T21:23:31.696Z,4.66
2022-12-08T21:28:35.846Z,4.63
2022-12-08T21:33:41.220Z,4.65
2022-12-08T21:38:47.984Z,4.65
2022-12-08T21:43:54.776Z,4.67
2022-12-08T21:48:57.915Z,4.67
2022-12-08T21:54:06.422Z,4.68
2022-12-08T21:59:20.839Z,4.70
2022-12-08T22:04:26.747Z,4.69
2022-12-08T22:09:31.444Z,4.70
2022-12-08T22:14:40.586Z,4.68
2022-12-08T22:19:46.766Z,4.67
2022-12-08T22:24:53.899Z,4.64
2022-12-08T22:30:00.243Z,4.62
2022-12-08T22:35:06.703Z,4.58
2022-12-08T22:40:11.969Z,4.58
2022-12-08T22:45:13.855Z,4.57
2022-12-08T22:50:29.275Z,4.59
2022-12-08T22:55:44.779Z,4.59
2022-12-08T23:00:48.747Z,4.59
2022-12-08T23:05:50.546Z,4.60
2022-12-08T23:11:03.774Z,4.59
2022-12-08T23:16:13.379Z,4.58
2022-12-08T23:21:22.613Z,4.60
2022-12-08T23:26:28.880Z,4.62
2022-12-08T23:31:35.644Z,4.63
2022-12-08T23:36:50.877Z,4.64
2022-12-08T23:41:52.754Z,4.65
2022-12-08T23:46:54.766Z,4.64
2022-12-08T23:51:59.377Z,4.63
2022-12-08T23:57:01.044Z,4.62
